createdAt,value
2023-01-29T00:02:34.192Z,-1.21
2023-01-29T00:07:36.921Z,-1.27
2023-01-29T00:12:39.664Z,-1.25
2023-01-29T00:17:42.440Z,-1.26
2023-01-29T00:22:45.179Z,-1.23
2023-01-29T00:27:47.954Z,-1.20
2023-01-29T00:32:51.155Z,-1.20
2023-01-29T00:37:55.946Z,-1.23
2023-01-29T00:43:18.033Z,-1.26
2023-01-29T00:48:20.804Z,-1.33
2023-01-29T00:53:23.617Z,-1.30
2023-01-29T00:58:28.502Z,-1.28
2023-01-29T01:03:34.082Z,-1.30
2023-01-29T01:08:55.725Z,-1.27
2023-01-29T01:14:02.134Z,-1.27
2023-01-29T01:19:06.123Z,-1.33
2023-01-29T01:24:08.901Z,-1.35
2023-01-29T01:29:11.655Z,-1.29
2023-01-29T01:34:14.375Z,-1.27
2023-01-29T01:39:17.119Z,-1.24
2023-01-29T01:45:01.154Z,-1.29
2023-01-29T01:50:16.195Z,-1.38
2023-01-29T01:55:22.891Z,-1.36
2023-01-29T02:00:25.765Z,-1.39
2023-01-29T02:05:48.567Z,-1.40
2023-01-29T02:10:51.304Z,-1.42
2023-01-29T02:15:54.080Z,-1.44
2023-01-29T02:21:15.378Z,-1.47
2023-01-29T02:26:46.387Z,-1.49
2023-01-29T02:32:20.550Z,-1.51
2023-01-29T02:37:40.475Z,-1.57
2023-01-29T02:43:02.435Z,-1.56
2023-01-29T02:48:05.608Z,-1.60
2023-01-29T02:53:15.774Z,-1.64
2023-01-29T02:58:25.866Z,-1.63
2023-01-29T03:03:41.882Z,-1.61
2023-01-29T03:08:54.135Z,-1.61
2023-01-29T03:14:04.677Z,-1.58
2023-01-29T03:19:34.710Z,-1.58
2023-01-29T03:25:03.448Z,-1.52
2023-01-29T03:30:25.622Z,-1.52
2023-01-29T03:35:37.583Z,-1.52
2023-01-29T03:40:53.951Z,-1.56
2023-01-29T03:46:33.694Z,-1.54
2023-01-29T03:52:03.101Z,-1.52
2023-01-29T03:57:16.047Z,-1.55
2023-01-29T04:02:27.875Z,-1.57
2023-01-29T04:07:33.526Z,-1.51
2023-01-29T04:12:41.395Z,-1.45
2023-01-29T04:17:50.055Z,-1.43
2023-01-29T04:22:52.873Z,-1.47
2023-01-29T04:28:06.849Z,-1.49
2023-01-29T04:33:18.645Z,-1.44
2023-01-29T04:39:05.077Z,-1.45
2023-01-29T04:44:19.165Z,-1.43
2023-01-29T04:49:41.557Z,-1.45
2023-01-29T04:55:19.529Z,-1.42
2023-01-29T05:00:28.829Z,-1.40
2023-01-29T05:05:31.867Z,-1.44
2023-01-29T05:10:34.644Z,-1.44
2023-01-29T05:15:40.817Z,-1.39
2023-01-29T05:20:43.995Z,-1.40
2023-01-29T05:25:47.385Z,-1.42
2023-01-29T05:30:52.784Z,-1.37
2023-01-29T05:35:56.168Z,-1.40
2023-01-29T05:40:59.556Z,-1.39
2023-01-29T05:46:02.330Z,-1.43
2023-01-29T05:51:05.508Z,-1.36
2023-01-29T05:56:08.506Z,-1.38
2023-01-29T06:01:15.347Z,-1.40
2023-01-29T06:06:19.027Z,-1.39
2023-01-29T06:11:21.871Z,-1.34
2023-01-29T06:16:24.679Z,-1.31
2023-01-29T06:21:27.482Z,-1.30
2023-01-29T06:26:30.230Z,-1.32
2023-01-29T06:31:38.844Z,-1.26
2023-01-29T06:36:42.315Z,-1.29
2023-01-29T06:41:46.360Z,-1.30
2023-01-29T06:46:49.422Z,-1.26
2023-01-29T06:51:52.171Z,-1.23
2023-01-29T06:56:56.306Z,-1.19
2023-01-29T07:01:59.743Z,-1.17
2023-01-29T07:07:02.735Z,-1.09
2023-01-29T07:12:05.746Z,-1.09
2023-01-29T07:17:08.470Z,-1.05
2023-01-29T07:22:11.370Z,-1.01
2023-01-29T07:27:14.154Z,-0.95
2023-01-29T07:32:16.982Z,-0.90
2023-01-29T07:37:19.777Z,-0.87
2023-01-29T07:42:22.519Z,-0.84
2023-01-29T07:47:25.351Z,-0.82
2023-01-29T07:52:30.740Z,-0.74
2023-01-29T07:57:33.637Z,-0.73
2023-01-29T08:02:36.486Z,-0.66
2023-01-29T08:07:39.469Z,-0.57
2023-01-29T08:12:42.253Z,-0.53
2023-01-29T08:23:13.168Z,-0.49
2023-01-29T08:28:16.019Z,-0.44
2023-01-29T08:33:23.764Z,-0.45
2023-01-29T08:38:34.206Z,-0.42
2023-01-29T08:43:37.301Z,-0.37
2023-01-29T08:48:40.222Z,-0.35
2023-01-29T08:53:43.048Z,-0.30
2023-01-29T08:58:48.292Z,-0.25
2023-01-29T09:03:52.568Z,-0.24
2023-01-29T09:08:55.311Z,-0.18
2023-01-29T09:13:58.052Z,-0.08
2023-01-29T09:19:00.859Z,0.07
2023-01-29T09:24:23.586Z,0.23
2023-01-29T09:29:26.333Z,0.23
2023-01-29T09:34:31.996Z,0.30
2023-01-29T09:39:34.869Z,0.38
2023-01-29T09:44:59.156Z,0.47
2023-01-29T09:50:19.097Z,0.44
2023-01-29T09:55:35.545Z,0.37
2023-01-29T10:00:51.634Z,0.44
2023-01-29T10:06:31.807Z,0.61
2023-01-29T10:11:43.485Z,0.74
2023-01-29T10:17:26.434Z,0.87
2023-01-29T10:22:45.241Z,1.11
2023-01-29T10:27:54.206Z,0.99
2023-01-29T10:33:01.866Z,0.81
2023-01-29T10:38:38.843Z,0.81
2023-01-29T10:44:12.644Z,0.89
2023-01-29T10:49:26.654Z,0.88
2023-01-29T10:54:45.560Z,0.80
2023-01-29T11:00:07.300Z,0.72
2023-01-29T11:05:52.473Z,0.72
2023-01-29T11:11:09.769Z,0.70
2023-01-29T11:16:13.783Z,0.61
2023-01-29T11:21:16.628Z,0.44
2023-01-29T11:26:22.462Z,0.63
2023-01-29T11:31:27.685Z,0.79
2023-01-29T11:36:38.367Z,0.91
2023-01-29T11:42:03.232Z,0.99
2023-01-29T11:47:27.666Z,1.08
2023-01-29T11:52:42.126Z,1.05
2023-01-29T11:57:50.190Z,0.99
2023-01-29T12:03:12.777Z,0.94
2023-01-29T12:08:17.299Z,0.82
2023-01-29T12:13:27.729Z,0.76
2023-01-29T12:18:35.734Z,0.74
2023-01-29T12:23:59.669Z,0.75
2023-01-29T12:29:16.930Z,0.69
2023-01-29T12:34:53.621Z,0.55
2023-01-29T12:39:56.729Z,0.46
2023-01-29T12:45:06.624Z,0.43
2023-01-29T12:50:22.365Z,0.36
2023-01-29T12:55:47.934Z,0.37
2023-01-29T13:00:54.780Z,0.37
2023-01-29T13:06:28.182Z,0.29
2023-01-29T13:11:52.997Z,0.27
2023-01-29T13:17:06.262Z,0.32
2023-01-29T13:22:25.518Z,0.26
2023-01-29T13:27:32.961Z,0.15
2023-01-29T13:32:35.772Z,0.13
2023-01-29T13:37:51.465Z,0.07
2023-01-29T13:42:54.793Z,0.08
2023-01-29T13:48:20.130Z,0.04
2023-01-29T13:53:29.297Z,-0.02
2023-01-29T13:58:32.051Z,-0.05
2023-01-29T14:04:03.801Z,-0.08
2023-01-29T14:09:32.777Z,-0.03
2023-01-29T14:15:20.702Z,-0.08
2023-01-29T14:20:38.196Z,-0.07
2023-01-29T14:25:48.114Z,-0.12
2023-01-29T14:30:51.007Z,-0.15
2023-01-29T14:35:54.459Z,-0.19
2023-01-29T14:41:13.269Z,-0.23
2023-01-29T14:46:34.274Z,-0.24
2023-01-29T14:51:39.773Z,-0.21
2023-01-29T14:56:51.461Z,-0.16
2023-01-29T15:01:56.550Z,-0.21
2023-01-29T15:06:59.367Z,-0.24
2023-01-29T15:12:39.709Z,-0.23
2023-01-29T15:18:28.706Z,-0.28
2023-01-29T15:23:33.749Z,-0.25
2023-01-29T15:28:36.648Z,-0.32
2023-01-29T15:33:42.764Z,-0.31
2023-01-29T15:38:45.546Z,-0.29
2023-01-29T15:43:51.000Z,-0.31
2023-01-29T15:48:57.266Z,-0.28
2023-01-29T15:54:02.042Z,-0.27
2023-01-29T15:59:09.825Z,-0.37
2023-01-29T16:04:21.027Z,-0.37
2023-01-29T16:09:25.333Z,-0.38
2023-01-29T16:14:28.125Z,-0.42
2023-01-29T16:19:30.862Z,-0.44
2023-01-29T16:24:35.731Z,-0.46
2023-01-29T16:29:39.074Z,-0.44
2023-01-29T16:34:43.751Z,-0.32
2023-01-29T16:39:47.952Z,-0.37
2023-01-29T16:44:57.654Z,-0.34
2023-01-29T16:50:40.591Z,-0.30
2023-01-29T16:55:51.103Z,-0.28
2023-01-29T17:01:03.282Z,-0.30
2023-01-29T17:06:18.947Z,-0.28
2023-01-29T17:11:34.654Z,-0.27
2023-01-29T17:16:56.247Z,-0.37
2023-01-29T17:21:59.232Z,-0.34
2023-01-29T17:27:02.140Z,-0.33
2023-01-29T17:32:06.103Z,-0.36
2023-01-29T17:37:13.856Z,-0.30
2023-01-29T17:42:16.651Z,-0.31
2023-01-29T17:47:19.487Z,-0.36
2023-01-29T17:52:22.790Z,-0.36
2023-01-29T17:57:25.584Z,-0.37
2023-01-29T18:02:28.729Z,-0.31
2023-01-29T18:07:32.977Z,-0.31
2023-01-29T18:12:35.858Z,-0.32
2023-01-29T18:17:38.779Z,-0.31
2023-01-29T18:22:41.893Z,-0.31
2023-01-29T18:27:44.841Z,-0.31
2023-01-29T18:32:48.455Z,-0.30
2023-01-29T18:37:51.597Z,-0.32
2023-01-29T18:42:54.316Z,-0.31
2023-01-29T18:47:57.797Z,-0.27
2023-01-29T18:53:02.668Z,-0.28
2023-01-29T18:58:24.247Z,-0.27
2023-01-29T19:03:28.343Z,-0.26
2023-01-29T19:08:31.220Z,-0.26
2023-01-29T19:13:35.264Z,-0.28
2023-01-29T19:18:38.795Z,-0.28
2023-01-29T19:23:42.697Z,-0.22
2023-01-29T19:28:45.940Z,-0.24
2023-01-29T19:33:49.550Z,-0.22
2023-01-29T19:38:52.301Z,-0.20
2023-01-29T19:43:55.009Z,-0.17
2023-01-29T19:48:58.871Z,-0.16
2023-01-29T19:54:02.563Z,-0.14
2023-01-29T19:59:07.284Z,-0.17
2023-01-29T20:04:13.029Z,-0.17
2023-01-29T20:09:15.846Z,-0.18
2023-01-29T20:14:18.607Z,-0.18
2023-01-29T20:19:21.323Z,-0.16
2023-01-29T20:24:24.345Z,-0.14
2023-01-29T20:29:27.066Z,-0.17
2023-01-29T20:34:31.478Z,-0.16
2023-01-29T20:39:34.253Z,-0.13
2023-01-29T20:44:37.099Z,-0.09
2023-01-29T20:49:39.947Z,-0.11
2023-01-29T20:54:42.708Z,-0.12
2023-01-29T20:59:45.755Z,-0.11
2023-01-29T21:04:48.762Z,-0.11
2023-01-29T21:09:51.541Z,-0.05
2023-01-29T21:14:54.294Z,-0.04
2023-01-29T21:19:57.214Z,-0.03
2023-01-29T21:24:59.977Z,0.01
2023-01-29T21:30:03.846Z,0.01
2023-01-29T21:35:08.282Z,-0.01
2023-01-29T21:40:11.734Z,-0.04
2023-01-29T21:45:14.763Z,-0.04
2023-01-29T21:50:17.952Z,-0.09
2023-01-29T21:55:21.026Z,-0.09
2023-01-29T22:00:24.002Z,-0.09
2023-01-29T22:05:29.105Z,-0.07
2023-01-29T22:10:34.060Z,-0.06
2023-01-29T22:15:36.985Z,-0.05
2023-01-29T22:20:40.073Z,-0.04
2023-01-29T22:25:43.675Z,0.03
2023-01-29T22:30:46.479Z,0.04
2023-01-29T22:35:54.371Z,0.06
2023-01-29T22:40:59.765Z,0.07
2023-01-29T22:46:08.555Z,0.04
2023-01-29T22:51:11.981Z,0.06
2023-01-29T22:56:15.060Z,0.01
2023-01-29T23:01:22.723Z,-0.00
2023-01-29T23:06:25.690Z,0.03
2023-01-29T23:11:29.606Z,0.04
2023-01-29T23:16:32.518Z,0.11
2023-01-29T23:21:35.417Z,0.13
2023-01-29T23:26:56.911Z,0.16
2023-01-29T23:31:59.884Z,0.23
2023-01-29T23:37:02.816Z,0.27
2023-01-29T23:42:05.904Z,0.27
2023-01-29T23:47:08.965Z,0.28
2023-01-29T23:52:11.864Z,0.34
2023-01-29T23:57:15.793Z,0.36
